sensor_id;sensor_type;location;lat;lon;timestamp;temperature;humidity
36690;DHT22;22676;51.120;3.702;2023-06-14T00:00:47;28.20;41.90
36690;DHT22;22676;51.120;3.702;2023-06-14T00:03:14;28.20;41.90
36690;DHT22;22676;51.120;3.702;2023-06-14T00:05:43;28.20;42.00
36690;DHT22;22676;51.120;3.702;2023-06-14T00:08:09;28.20;41.80
36690;DHT22;22676;51.120;3.702;2023-06-14T00:10:35;28.20;41.70
36690;DHT22;22676;51.120;3.702;2023-06-14T00:13:01;28.30;41.70
36690;DHT22;22676;51.120;3.702;2023-06-14T00:15:27;28.30;41.60
36690;DHT22;22676;51.120;3.702;2023-06-14T00:17:53;28.40;41.50
36690;DHT22;22676;51.120;3.702;2023-06-14T00:20:20;28.30;41.50
36690;DHT22;22676;51.120;3.702;2023-06-14T00:22:46;28.40;41.60
36690;DHT22;22676;51.120;3.702;2023-06-14T00:25:11;28.30;41.40
36690;DHT22;22676;51.120;3.702;2023-06-14T00:27:37;28.20;41.50
36690;DHT22;22676;51.120;3.702;2023-06-14T00:30:03;28.10;41.70
36690;DHT22;22676;51.120;3.702;2023-06-14T00:32:28;28.10;41.90
36690;DHT22;22676;51.120;3.702;2023-06-14T00:34:54;28.10;41.90
36690;DHT22;22676;51.120;3.702;2023-06-14T00:37:19;28.00;42.00
36690;DHT22;22676;51.120;3.702;2023-06-14T00:39:45;27.90;42.00
36690;DHT22;22676;51.120;3.702;2023-06-14T00:42:10;28.00;42.00
36690;DHT22;22676;51.120;3.702;2023-06-14T00:44:36;28.00;41.90
36690;DHT22;22676;51.120;3.702;2023-06-14T00:47:02;27.90;41.80
36690;DHT22;22676;51.120;3.702;2023-06-14T00:49:27;27.90;41.80
36690;DHT22;22676;51.120;3.702;2023-06-14T00:51:54;27.90;41.90
36690;DHT22;22676;51.120;3.702;2023-06-14T00:54:20;28.00;41.60
36690;DHT22;22676;51.120;3.702;2023-06-14T00:56:45;28.00;41.40
36690;DHT22;22676;51.120;3.702;2023-06-14T00:59:11;28.00;41.30
36690;DHT22;22676;51.120;3.702;2023-06-14T01:01:37;27.90;41.30
36690;DHT22;22676;51.120;3.702;2023-06-14T01:04:04;27.90;41.20
36690;DHT22;22676;51.120;3.702;2023-06-14T01:11:46;27.80;40.90
36690;DHT22;22676;51.120;3.702;2023-06-14T01:14:14;27.90;40.60
36690;DHT22;22676;51.120;3.702;2023-06-14T01:16:39;27.80;40.60
36690;DHT22;22676;51.120;3.702;2023-06-14T01:19:05;27.80;40.50
36690;DHT22;22676;51.120;3.702;2023-06-14T01:21:34;27.80;40.40
36690;DHT22;22676;51.120;3.702;2023-06-14T01:24:07;27.80;40.20
36690;DHT22;22676;51.120;3.702;2023-06-14T01:26:34;27.80;40.20
36690;DHT22;22676;51.120;3.702;2023-06-14T01:29:00;27.80;40.00
36690;DHT22;22676;51.120;3.702;2023-06-14T01:31:26;27.70;39.90
36690;DHT22;22676;51.120;3.702;2023-06-14T01:33:52;27.70;39.80
36690;DHT22;22676;51.120;3.702;2023-06-14T01:36:18;27.80;39.60
36690;DHT22;22676;51.120;3.702;2023-06-14T01:38:44;27.80;39.50
36690;DHT22;22676;51.120;3.702;2023-06-14T01:41:11;27.80;39.30
36690;DHT22;22676;51.120;3.702;2023-06-14T01:43:36;27.80;39.10
36690;DHT22;22676;51.120;3.702;2023-06-14T01:46:02;27.80;39.10
36690;DHT22;22676;51.120;3.702;2023-06-14T01:48:28;27.80;39.00
36690;DHT22;22676;51.120;3.702;2023-06-14T01:50:53;27.80;38.90
36690;DHT22;22676;51.120;3.702;2023-06-14T01:53:19;27.80;38.70
36690;DHT22;22676;51.120;3.702;2023-06-14T01:55:45;27.80;38.50
36690;DHT22;22676;51.120;3.702;2023-06-14T01:58:14;27.80;38.40
36690;DHT22;22676;51.120;3.702;2023-06-14T02:00:41;27.70;38.30
36690;DHT22;22676;51.120;3.702;2023-06-14T02:03:08;27.70;38.40
36690;DHT22;22676;51.120;3.702;2023-06-14T02:05:34;27.60;39.20
36690;DHT22;22676;51.120;3.702;2023-06-14T02:08:00;27.60;39.10
36690;DHT22;22676;51.120;3.702;2023-06-14T02:10:25;27.80;39.30
36690;DHT22;22676;51.120;3.702;2023-06-14T02:12:51;27.80;39.50
36690;DHT22;22676;51.120;3.702;2023-06-14T02:15:17;27.80;39.40
36690;DHT22;22676;51.120;3.702;2023-06-14T02:17:43;27.90;39.70
36690;DHT22;22676;51.120;3.702;2023-06-14T02:20:09;27.80;39.70
36690;DHT22;22676;51.120;3.702;2023-06-14T02:22:35;27.90;39.90
36690;DHT22;22676;51.120;3.702;2023-06-14T02:25:00;27.80;40.00
36690;DHT22;22676;51.120;3.702;2023-06-14T02:27:26;27.80;40.20
36690;DHT22;22676;51.120;3.702;2023-06-14T02:29:51;27.80;40.40
36690;DHT22;22676;51.120;3.702;2023-06-14T02:32:17;27.70;40.60
36690;DHT22;22676;51.120;3.702;2023-06-14T02:34:42;27.70;41.20
36690;DHT22;22676;51.120;3.702;2023-06-14T02:37:08;27.70;40.80
36690;DHT22;22676;51.120;3.702;2023-06-14T02:39:34;27.60;40.90
36690;DHT22;22676;51.120;3.702;2023-06-14T02:42:00;27.60;41.10
36690;DHT22;22676;51.120;3.702;2023-06-14T02:44:26;27.60;41.30
36690;DHT22;22676;51.120;3.702;2023-06-14T02:46:55;27.50;41.30
36690;DHT22;22676;51.120;3.702;2023-06-14T02:49:21;27.50;41.40
36690;DHT22;22676;51.120;3.702;2023-06-14T02:51:47;27.50;41.50
36690;DHT22;22676;51.120;3.702;2023-06-14T02:54:13;27.50;41.20
36690;DHT22;22676;51.120;3.702;2023-06-14T02:56:39;27.40;41.20
36690;DHT22;22676;51.120;3.702;2023-06-14T02:59:04;27.30;41.20
36690;DHT22;22676;51.120;3.702;2023-06-14T03:01:30;27.30;41.50
36690;DHT22;22676;51.120;3.702;2023-06-14T03:03:59;27.20;41.60
36690;DHT22;22676;51.120;3.702;2023-06-14T03:06:24;27.30;41.80
36690;DHT22;22676;51.120;3.702;2023-06-14T03:08:50;27.30;41.90
36690;DHT22;22676;51.120;3.702;2023-06-14T03:11:16;27.30;42.00
36690;DHT22;22676;51.120;3.702;2023-06-14T03:13:45;27.20;42.20
36690;DHT22;22676;51.120;3.702;2023-06-14T03:16:12;27.20;42.30
36690;DHT22;22676;51.120;3.702;2023-06-14T03:18:37;27.30;42.40
36690;DHT22;22676;51.120;3.702;2023-06-14T03:21:03;27.30;42.50
36690;DHT22;22676;51.120;3.702;2023-06-14T03:23:29;27.20;42.50
36690;DHT22;22676;51.120;3.702;2023-06-14T03:25:54;27.20;42.60
36690;DHT22;22676;51.120;3.702;2023-06-14T03:28:21;27.20;42.50
36690;DHT22;22676;51.120;3.702;2023-06-14T03:30:46;27.30;42.60
36690;DHT22;22676;51.120;3.702;2023-06-14T03:33:12;27.30;42.50
36690;DHT22;22676;51.120;3.702;2023-06-14T03:35:37;27.20;42.50
36690;DHT22;22676;51.120;3.702;2023-06-14T03:38:03;27.20;42.50
36690;DHT22;22676;51.120;3.702;2023-06-14T03:40:29;27.20;42.60
36690;DHT22;22676;51.120;3.702;2023-06-14T03:42:54;27.20;42.70
36690;DHT22;22676;51.120;3.702;2023-06-14T03:45:20;27.10;42.70
36690;DHT22;22676;51.120;3.702;2023-06-14T03:47:46;27.10;42.70
36690;DHT22;22676;51.120;3.702;2023-06-14T03:50:11;27.10;42.80
36690;DHT22;22676;51.120;3.702;2023-06-14T03:52:37;27.20;42.80
36690;DHT22;22676;51.120;3.702;2023-06-14T03:55:03;27.10;42.30
36690;DHT22;22676;51.120;3.702;2023-06-14T03:57:29;27.10;42.10
36690;DHT22;22676;51.120;3.702;2023-06-14T03:59:55;27.00;42.20
36690;DHT22;22676;51.120;3.702;2023-06-14T04:02:20;27.00;42.20
36690;DHT22;22676;51.120;3.702;2023-06-14T04:04:47;26.90;42.30
36690;DHT22;22676;51.120;3.702;2023-06-14T04:07:14;26.90;42.50
36690;DHT22;22676;51.120;3.702;2023-06-14T04:09:40;27.00;42.60
36690;DHT22;22676;51.120;3.702;2023-06-14T04:12:06;26.90;42.70
36690;DHT22;22676;51.120;3.702;2023-06-14T04:14:34;26.90;42.90
36690;DHT22;22676;51.120;3.702;2023-06-14T04:16:59;27.00;43.00
36690;DHT22;22676;51.120;3.702;2023-06-14T04:19:25;26.90;43.00
36690;DHT22;22676;51.120;3.702;2023-06-14T04:21:50;26.90;43.10
36690;DHT22;22676;51.120;3.702;2023-06-14T04:24:16;26.90;43.20
36690;DHT22;22676;51.120;3.702;2023-06-14T04:26:42;27.00;43.20
36690;DHT22;22676;51.120;3.702;2023-06-14T04:29:10;27.00;43.10
36690;DHT22;22676;51.120;3.702;2023-06-14T04:31:42;27.00;43.10
36690;DHT22;22676;51.120;3.702;2023-06-14T04:34:10;27.00;43.10
36690;DHT22;22676;51.120;3.702;2023-06-14T04:36:44;27.00;43.20
36690;DHT22;22676;51.120;3.702;2023-06-14T04:39:18;27.10;43.10
36690;DHT22;22676;51.120;3.702;2023-06-14T04:41:44;27.50;41.10
36690;DHT22;22676;51.120;3.702;2023-06-14T04:44:10;27.60;39.30
36690;DHT22;22676;51.120;3.702;2023-06-14T04:46:36;27.60;38.50
36690;DHT22;22676;51.120;3.702;2023-06-14T04:49:14;27.50;38.30
36690;DHT22;22676;51.120;3.702;2023-06-14T04:51:41;27.40;38.10
36690;DHT22;22676;51.120;3.702;2023-06-14T04:54:08;27.30;38.00
36690;DHT22;22676;51.120;3.702;2023-06-14T04:56:35;27.30;38.00
36690;DHT22;22676;51.120;3.702;2023-06-14T04:59:02;27.20;38.00
36690;DHT22;22676;51.120;3.702;2023-06-14T05:01:30;27.10;38.00
36690;DHT22;22676;51.120;3.702;2023-06-14T05:03:57;27.10;37.90
36690;DHT22;22676;51.120;3.702;2023-06-14T05:06:22;27.00;37.70
36690;DHT22;22676;51.120;3.702;2023-06-14T05:08:48;26.90;37.60
36690;DHT22;22676;51.120;3.702;2023-06-14T05:11:13;26.70;37.60
36690;DHT22;22676;51.120;3.702;2023-06-14T05:13:39;26.70;37.40
36690;DHT22;22676;51.120;3.702;2023-06-14T05:16:05;26.60;37.50
36690;DHT22;22676;51.120;3.702;2023-06-14T05:18:31;26.50;37.80
36690;DHT22;22676;51.120;3.702;2023-06-14T05:20:59;26.40;37.90
36690;DHT22;22676;51.120;3.702;2023-06-14T05:23:25;26.40;38.20
36690;DHT22;22676;51.120;3.702;2023-06-14T05:25:50;26.40;38.20
36690;DHT22;22676;51.120;3.702;2023-06-14T05:28:16;26.40;38.40
36690;DHT22;22676;51.120;3.702;2023-06-14T05:30:41;26.40;38.40
36690;DHT22;22676;51.120;3.702;2023-06-14T05:33:07;26.40;38.40
36690;DHT22;22676;51.120;3.702;2023-06-14T05:35:33;26.40;38.50
36690;DHT22;22676;51.120;3.702;2023-06-14T05:37:58;26.40;38.60
36690;DHT22;22676;51.120;3.702;2023-06-14T05:40:24;26.40;38.80
36690;DHT22;22676;51.120;3.702;2023-06-14T05:42:49;26.30;38.90
36690;DHT22;22676;51.120;3.702;2023-06-14T05:45:15;26.20;39.00
36690;DHT22;22676;51.120;3.702;2023-06-14T05:47:41;26.30;38.90
36690;DHT22;22676;51.120;3.702;2023-06-14T05:50:07;26.20;38.30
36690;DHT22;22676;51.120;3.702;2023-06-14T05:52:33;26.30;38.20
36690;DHT22;22676;51.120;3.702;2023-06-14T05:54:59;26.40;37.50
36690;DHT22;22676;51.120;3.702;2023-06-14T05:57:25;26.40;37.30
36690;DHT22;22676;51.120;3.702;2023-06-14T05:59:50;26.50;37.10
36690;DHT22;22676;51.120;3.702;2023-06-14T06:02:16;26.50;36.50
36690;DHT22;22676;51.120;3.702;2023-06-14T06:04:42;26.60;36.60
36690;DHT22;22676;51.120;3.702;2023-06-14T06:07:07;26.60;36.70
36690;DHT22;22676;51.120;3.702;2023-06-14T06:09:33;26.60;36.90
36690;DHT22;22676;51.120;3.702;2023-06-14T06:11:58;26.60;36.90
36690;DHT22;22676;51.120;3.702;2023-06-14T06:14:24;26.60;37.00
36690;DHT22;22676;51.120;3.702;2023-06-14T06:16:50;26.60;36.90
36690;DHT22;22676;51.120;3.702;2023-06-14T06:19:18;26.50;37.00
36690;DHT22;22676;51.120;3.702;2023-06-14T06:21:43;26.60;37.10
36690;DHT22;22676;51.120;3.702;2023-06-14T06:24:09;26.70;36.90
36690;DHT22;22676;51.120;3.702;2023-06-14T06:26:34;26.60;36.40
36690;DHT22;22676;51.120;3.702;2023-06-14T06:29:00;26.60;36.50
36690;DHT22;22676;51.120;3.702;2023-06-14T06:31:25;26.70;36.60
36690;DHT22;22676;51.120;3.702;2023-06-14T06:33:53;26.70;36.30
36690;DHT22;22676;51.120;3.702;2023-06-14T06:36:19;26.70;36.10
36690;DHT22;22676;51.120;3.702;2023-06-14T06:38:47;26.70;36.50
36690;DHT22;22676;51.120;3.702;2023-06-14T06:41:12;26.70;36.70
36690;DHT22;22676;51.120;3.702;2023-06-14T06:43:38;26.90;36.60
36690;DHT22;22676;51.120;3.702;2023-06-14T06:46:03;26.90;36.50
36690;DHT22;22676;51.120;3.702;2023-06-14T06:48:29;26.90;36.50
36690;DHT22;22676;51.120;3.702;2023-06-14T06:50:54;26.80;36.60
36690;DHT22;22676;51.120;3.702;2023-06-14T06:53:20;26.70;36.20
36690;DHT22;22676;51.120;3.702;2023-06-14T06:55:45;26.70;36.20
36690;DHT22;22676;51.120;3.702;2023-06-14T06:58:12;26.70;36.30
36690;DHT22;22676;51.120;3.702;2023-06-14T07:00:37;26.90;36.50
36690;DHT22;22676;51.120;3.702;2023-06-14T07:03:03;26.90;36.50
36690;DHT22;22676;51.120;3.702;2023-06-14T07:05:29;26.80;36.70
36690;DHT22;22676;51.120;3.702;2023-06-14T07:07:54;26.80;36.90
36690;DHT22;22676;51.120;3.702;2023-06-14T07:10:20;26.90;36.50
36690;DHT22;22676;51.120;3.702;2023-06-14T07:12:46;26.80;36.60
36690;DHT22;22676;51.120;3.702;2023-06-14T07:15:11;26.70;36.80
36690;DHT22;22676;51.120;3.702;2023-06-14T07:17:37;26.80;37.00
36690;DHT22;22676;51.120;3.702;2023-06-14T07:20:03;26.80;36.80
36690;DHT22;22676;51.120;3.702;2023-06-14T07:22:33;26.70;37.10
36690;DHT22;22676;51.120;3.702;2023-06-14T07:24:58;26.70;37.30
36690;DHT22;22676;51.120;3.702;2023-06-14T07:27:24;26.60;37.30
36690;DHT22;22676;51.120;3.702;2023-06-14T07:29:49;26.70;37.60
36690;DHT22;22676;51.120;3.702;2023-06-14T07:32:15;26.60;37.80
36690;DHT22;22676;51.120;3.702;2023-06-14T07:34:41;26.60;38.00
36690;DHT22;22676;51.120;3.702;2023-06-14T07:37:06;26.50;38.10
36690;DHT22;22676;51.120;3.702;2023-06-14T07:39:32;26.50;38.30
36690;DHT22;22676;51.120;3.702;2023-06-14T07:41:57;26.50;38.40
36690;DHT22;22676;51.120;3.702;2023-06-14T07:44:23;26.50;38.50
36690;DHT22;22676;51.120;3.702;2023-06-14T07:46:48;26.50;38.50
36690;DHT22;22676;51.120;3.702;2023-06-14T07:49:17;26.70;38.70
36690;DHT22;22676;51.120;3.702;2023-06-14T07:51:42;26.60;38.60
36690;DHT22;22676;51.120;3.702;2023-06-14T07:54:09;26.70;38.60
36690;DHT22;22676;51.120;3.702;2023-06-14T07:56:35;26.80;38.70
36690;DHT22;22676;51.120;3.702;2023-06-14T07:59:01;26.80;38.70
36690;DHT22;22676;51.120;3.702;2023-06-14T08:01:27;26.80;38.70
36690;DHT22;22676;51.120;3.702;2023-06-14T08:03:53;26.80;38.80
36690;DHT22;22676;51.120;3.702;2023-06-14T08:06:18;26.70;39.00
36690;DHT22;22676;51.120;3.702;2023-06-14T08:08:44;26.50;39.00
36690;DHT22;22676;51.120;3.702;2023-06-14T08:11:10;26.60;39.10
36690;DHT22;22676;51.120;3.702;2023-06-14T08:13:35;26.50;39.10
36690;DHT22;22676;51.120;3.702;2023-06-14T08:16:01;26.50;39.20
36690;DHT22;22676;51.120;3.702;2023-06-14T08:18:26;26.60;39.70
36690;DHT22;22676;51.120;3.702;2023-06-14T08:20:52;26.70;39.30
36690;DHT22;22676;51.120;3.702;2023-06-14T08:23:19;26.70;39.40
36690;DHT22;22676;51.120;3.702;2023-06-14T08:25:46;26.80;40.00
36690;DHT22;22676;51.120;3.702;2023-06-14T08:28:12;26.80;39.40
36690;DHT22;22676;51.120;3.702;2023-06-14T08:30:37;26.90;39.50
36690;DHT22;22676;51.120;3.702;2023-06-14T08:33:03;27.00;39.70
36690;DHT22;22676;51.120;3.702;2023-06-14T08:35:28;27.10;39.70
36690;DHT22;22676;51.120;3.702;2023-06-14T08:37:54;27.10;39.60
36690;DHT22;22676;51.120;3.702;2023-06-14T08:40:23;27.10;39.60
36690;DHT22;22676;51.120;3.702;2023-06-14T08:42:52;27.10;39.70
36690;DHT22;22676;51.120;3.702;2023-06-14T08:45:19;27.10;39.70
36690;DHT22;22676;51.120;3.702;2023-06-14T08:47:45;27.20;39.70
36690;DHT22;22676;51.120;3.702;2023-06-14T08:50:26;27.20;39.50
36690;DHT22;22676;51.120;3.702;2023-06-14T08:52:58;27.30;39.70
36690;DHT22;22676;51.120;3.702;2023-06-14T08:55:27;27.30;39.80
36690;DHT22;22676;51.120;3.702;2023-06-14T08:57:53;27.30;39.70
36690;DHT22;22676;51.120;3.702;2023-06-14T09:00:19;27.30;40.00
36690;DHT22;22676;51.120;3.702;2023-06-14T09:02:46;27.40;39.90
36690;DHT22;22676;51.120;3.702;2023-06-14T09:05:12;27.50;39.70
36690;DHT22;22676;51.120;3.702;2023-06-14T09:07:43;27.40;39.70
36690;DHT22;22676;51.120;3.702;2023-06-14T09:10:10;27.50;39.90
36690;DHT22;22676;51.120;3.702;2023-06-14T09:12:36;27.40;39.80
36690;DHT22;22676;51.120;3.702;2023-06-14T09:15:02;27.30;40.10
36690;DHT22;22676;51.120;3.702;2023-06-14T09:17:37;27.40;40.00
36690;DHT22;22676;51.120;3.702;2023-06-14T09:20:04;27.40;40.20
36690;DHT22;22676;51.120;3.702;2023-06-14T09:22:37;27.30;40.40
36690;DHT22;22676;51.120;3.702;2023-06-14T09:25:03;27.20;40.40
36690;DHT22;22676;51.120;3.702;2023-06-14T09:27:30;27.20;40.40
36690;DHT22;22676;51.120;3.702;2023-06-14T09:29:55;27.20;40.40
36690;DHT22;22676;51.120;3.702;2023-06-14T09:32:21;27.20;40.40
36690;DHT22;22676;51.120;3.702;2023-06-14T09:34:47;27.20;40.20
36690;DHT22;22676;51.120;3.702;2023-06-14T09:37:13;27.30;40.20
36690;DHT22;22676;51.120;3.702;2023-06-14T09:39:51;27.30;40.10
36690;DHT22;22676;51.120;3.702;2023-06-14T09:42:17;27.30;40.10
36690;DHT22;22676;51.120;3.702;2023-06-14T09:44:47;27.30;40.00
36690;DHT22;22676;51.120;3.702;2023-06-14T09:47:12;27.30;39.90
36690;DHT22;22676;51.120;3.702;2023-06-14T09:49:38;27.30;39.40
36690;DHT22;22676;51.120;3.702;2023-06-14T09:52:04;27.30;39.40
36690;DHT22;22676;51.120;3.702;2023-06-14T09:54:31;27.30;39.50
36690;DHT22;22676;51.120;3.702;2023-06-14T09:56:57;27.40;39.50
36690;DHT22;22676;51.120;3.702;2023-06-14T09:59:25;27.40;39.30
36690;DHT22;22676;51.120;3.702;2023-06-14T10:01:54;27.30;39.60
36690;DHT22;22676;51.120;3.702;2023-06-14T10:04:23;27.40;39.30
36690;DHT22;22676;51.120;3.702;2023-06-14T10:06:49;27.50;39.20
36690;DHT22;22676;51.120;3.702;2023-06-14T10:09:15;27.50;39.00
36690;DHT22;22676;51.120;3.702;2023-06-14T10:11:42;27.50;39.00
36690;DHT22;22676;51.120;3.702;2023-06-14T10:14:09;27.50;39.00
36690;DHT22;22676;51.120;3.702;2023-06-14T10:16:38;27.50;39.10
36690;DHT22;22676;51.120;3.702;2023-06-14T10:21:38;27.70;38.80
36690;DHT22;22676;51.120;3.702;2023-06-14T10:24:08;27.70;38.80
36690;DHT22;22676;51.120;3.702;2023-06-14T10:26:39;27.70;38.50
36690;DHT22;22676;51.120;3.702;2023-06-14T10:29:14;27.80;38.60
36690;DHT22;22676;51.120;3.702;2023-06-14T10:31:41;27.80;38.50
36690;DHT22;22676;51.120;3.702;2023-06-14T10:34:07;27.70;38.50
36690;DHT22;22676;51.120;3.702;2023-06-14T10:36:33;27.70;38.70
36690;DHT22;22676;51.120;3.702;2023-06-14T10:39:05;27.70;38.80
36690;DHT22;22676;51.120;3.702;2023-06-14T10:41:39;27.80;39.10
36690;DHT22;22676;51.120;3.702;2023-06-14T10:46:40;27.80;39.20
36690;DHT22;22676;51.120;3.702;2023-06-14T10:49:06;27.80;39.40
36690;DHT22;22676;51.120;3.702;2023-06-14T10:51:39;27.80;39.70
36690;DHT22;22676;51.120;3.702;2023-06-14T10:54:13;27.80;39.70
36690;DHT22;22676;51.120;3.702;2023-06-14T10:56:45;27.80;39.80
36690;DHT22;22676;51.120;3.702;2023-06-14T10:59:11;27.80;40.00
36690;DHT22;22676;51.120;3.702;2023-06-14T11:02:00;27.80;39.90
36690;DHT22;22676;51.120;3.702;2023-06-14T11:04:23;27.80;40.10
36690;DHT22;22676;51.120;3.702;2023-06-14T11:07:01;27.80;40.10
36690;DHT22;22676;51.120;3.702;2023-06-14T11:11:59;27.80;40.10
36690;DHT22;22676;51.120;3.702;2023-06-14T11:14:29;27.90;40.10
36690;DHT22;22676;51.120;3.702;2023-06-14T11:16:55;27.90;39.80
36690;DHT22;22676;51.120;3.702;2023-06-14T11:19:21;28.00;39.60
36690;DHT22;22676;51.120;3.702;2023-06-14T11:21:47;28.00;39.40
36690;DHT22;22676;51.120;3.702;2023-06-14T11:24:12;28.00;39.20
36690;DHT22;22676;51.120;3.702;2023-06-14T11:26:39;27.90;39.60
36690;DHT22;22676;51.120;3.702;2023-06-14T11:29:05;27.90;39.60
36690;DHT22;22676;51.120;3.702;2023-06-14T11:31:31;27.90;39.60
36690;DHT22;22676;51.120;3.702;2023-06-14T11:33:57;27.90;39.90
36690;DHT22;22676;51.120;3.702;2023-06-14T11:36:26;27.80;39.80
36690;DHT22;22676;51.120;3.702;2023-06-14T11:38:57;27.90;40.10
36690;DHT22;22676;51.120;3.702;2023-06-14T11:41:24;27.80;39.60
36690;DHT22;22676;51.120;3.702;2023-06-14T11:43:52;27.80;39.90
36690;DHT22;22676;51.120;3.702;2023-06-14T11:46:18;27.80;39.70
36690;DHT22;22676;51.120;3.702;2023-06-14T11:48:47;27.90;39.60
36690;DHT22;22676;51.120;3.702;2023-06-14T11:51:12;27.90;39.70
36690;DHT22;22676;51.120;3.702;2023-06-14T11:53:38;27.90;40.00
36690;DHT22;22676;51.120;3.702;2023-06-14T11:56:04;27.90;39.80
36690;DHT22;22676;51.120;3.702;2023-06-14T11:58:29;27.90;39.80
36690;DHT22;22676;51.120;3.702;2023-06-14T12:00:55;28.00;40.00
36690;DHT22;22676;51.120;3.702;2023-06-14T12:03:24;28.10;39.40
36690;DHT22;22676;51.120;3.702;2023-06-14T12:06:01;28.10;39.00
36690;DHT22;22676;51.120;3.702;2023-06-14T12:08:32;28.10;38.80
36690;DHT22;22676;51.120;3.702;2023-06-14T12:11:03;28.10;38.90
36690;DHT22;22676;51.120;3.702;2023-06-14T12:13:28;28.10;39.20
36690;DHT22;22676;51.120;3.702;2023-06-14T12:15:55;28.10;39.20
36690;DHT22;22676;51.120;3.702;2023-06-14T12:18:21;28.00;39.10
36690;DHT22;22676;51.120;3.702;2023-06-14T12:20:58;28.10;39.20
36690;DHT22;22676;51.120;3.702;2023-06-14T12:23:38;28.10;39.40
36690;DHT22;22676;51.120;3.702;2023-06-14T12:26:03;28.10;39.70
36690;DHT22;22676;51.120;3.702;2023-06-14T12:28:31;28.10;39.80
36690;DHT22;22676;51.120;3.702;2023-06-14T12:30:56;28.00;39.90
36690;DHT22;22676;51.120;3.702;2023-06-14T12:33:24;28.00;40.20
36690;DHT22;22676;51.120;3.702;2023-06-14T12:35:50;28.00;40.30
36690;DHT22;22676;51.120;3.702;2023-06-14T12:38:15;28.00;40.40
36690;DHT22;22676;51.120;3.702;2023-06-14T12:40:41;28.20;41.40
36690;DHT22;22676;51.120;3.702;2023-06-14T12:43:07;28.00;41.30
36690;DHT22;22676;51.120;3.702;2023-06-14T12:45:33;28.10;41.50
36690;DHT22;22676;51.120;3.702;2023-06-14T12:47:58;28.00;41.30
36690;DHT22;22676;51.120;3.702;2023-06-14T12:50:24;27.90;41.20
36690;DHT22;22676;51.120;3.702;2023-06-14T12:52:50;27.90;41.60
36690;DHT22;22676;51.120;3.702;2023-06-14T12:55:16;28.00;41.80
36690;DHT22;22676;51.120;3.702;2023-06-14T12:57:42;27.90;42.00
36690;DHT22;22676;51.120;3.702;2023-06-14T13:00:07;28.00;41.90
36690;DHT22;22676;51.120;3.702;2023-06-14T13:02:33;28.00;41.50
36690;DHT22;22676;51.120;3.702;2023-06-14T13:04:59;27.90;41.60
36690;DHT22;22676;51.120;3.702;2023-06-14T13:07:25;27.90;41.70
36690;DHT22;22676;51.120;3.702;2023-06-14T13:09:51;27.90;41.80
36690;DHT22;22676;51.120;3.702;2023-06-14T13:12:16;27.90;41.80
36690;DHT22;22676;51.120;3.702;2023-06-14T13:14:42;27.90;42.00
36690;DHT22;22676;51.120;3.702;2023-06-14T13:17:08;27.90;42.00
36690;DHT22;22676;51.120;3.702;2023-06-14T13:19:34;27.90;42.20
36690;DHT22;22676;51.120;3.702;2023-06-14T13:22:00;27.90;42.30
36690;DHT22;22676;51.120;3.702;2023-06-14T13:24:25;27.90;42.60
36690;DHT22;22676;51.120;3.702;2023-06-14T13:26:51;27.90;42.60
36690;DHT22;22676;51.120;3.702;2023-06-14T13:29:17;27.90;42.60
36690;DHT22;22676;51.120;3.702;2023-06-14T13:31:42;27.90;42.70
36690;DHT22;22676;51.120;3.702;2023-06-14T13:34:08;27.90;42.70
36690;DHT22;22676;51.120;3.702;2023-06-14T13:36:33;27.90;42.90
36690;DHT22;22676;51.120;3.702;2023-06-14T13:38:59;27.90;42.80
36690;DHT22;22676;51.120;3.702;2023-06-14T13:41:25;28.00;42.90
36690;DHT22;22676;51.120;3.702;2023-06-14T13:43:57;27.90;42.70
36690;DHT22;22676;51.120;3.702;2023-06-14T13:46:22;27.90;42.70
36690;DHT22;22676;51.120;3.702;2023-06-14T13:48:48;28.00;42.80
36690;DHT22;22676;51.120;3.702;2023-06-14T13:51:13;27.90;42.70
36690;DHT22;22676;51.120;3.702;2023-06-14T13:53:39;28.00;42.80
36690;DHT22;22676;51.120;3.702;2023-06-14T13:56:04;28.00;42.90
36690;DHT22;22676;51.120;3.702;2023-06-14T13:58:30;28.00;42.80
36690;DHT22;22676;51.120;3.702;2023-06-14T14:00:55;28.00;42.80
36690;DHT22;22676;51.120;3.702;2023-06-14T14:03:22;28.00;42.80
36690;DHT22;22676;51.120;3.702;2023-06-14T14:05:47;28.00;42.80
36690;DHT22;22676;51.120;3.702;2023-06-14T14:08:13;28.00;43.00
36690;DHT22;22676;51.120;3.702;2023-06-14T14:10:38;28.00;42.90
36690;DHT22;22676;51.120;3.702;2023-06-14T14:13:06;28.00;42.70
36690;DHT22;22676;51.120;3.702;2023-06-14T14:15:31;28.00;42.70
36690;DHT22;22676;51.120;3.702;2023-06-14T14:17:59;28.00;42.70
36690;DHT22;22676;51.120;3.702;2023-06-14T14:20:25;28.00;42.80
36690;DHT22;22676;51.120;3.702;2023-06-14T14:22:51;28.00;42.60
36690;DHT22;22676;51.120;3.702;2023-06-14T14:25:16;28.10;42.70
36690;DHT22;22676;51.120;3.702;2023-06-14T14:27:42;28.10;42.60
36690;DHT22;22676;51.120;3.702;2023-06-14T14:30:07;28.00;42.60
36690;DHT22;22676;51.120;3.702;2023-06-14T14:32:33;28.10;42.70
36690;DHT22;22676;51.120;3.702;2023-06-14T14:34:59;28.20;42.90
36690;DHT22;22676;51.120;3.702;2023-06-14T14:37:24;28.10;42.50
36690;DHT22;22676;51.120;3.702;2023-06-14T14:39:50;28.10;42.10
36690;DHT22;22676;51.120;3.702;2023-06-14T14:42:15;28.20;42.10
36690;DHT22;22676;51.120;3.702;2023-06-14T14:44:41;28.20;42.00
36690;DHT22;22676;51.120;3.702;2023-06-14T14:47:06;28.20;42.00
36690;DHT22;22676;51.120;3.702;2023-06-14T14:49:32;28.20;41.90
36690;DHT22;22676;51.120;3.702;2023-06-14T14:51:57;28.20;42.10
36690;DHT22;22676;51.120;3.702;2023-06-14T14:54:23;28.10;42.00
36690;DHT22;22676;51.120;3.702;2023-06-14T14:56:50;28.20;42.00
36690;DHT22;22676;51.120;3.702;2023-06-14T14:59:16;28.10;42.00
36690;DHT22;22676;51.120;3.702;2023-06-14T15:01:42;28.10;41.90
36690;DHT22;22676;51.120;3.702;2023-06-14T15:04:08;28.20;42.10
36690;DHT22;22676;51.120;3.702;2023-06-14T15:06:33;28.20;42.00
36690;DHT22;22676;51.120;3.702;2023-06-14T15:09:01;28.20;42.30
36690;DHT22;22676;51.120;3.702;2023-06-14T15:11:26;28.20;41.90
36690;DHT22;22676;51.120;3.702;2023-06-14T15:13:52;28.30;42.10
36690;DHT22;22676;51.120;3.702;2023-06-14T15:16:18;28.30;41.50
36690;DHT22;22676;51.120;3.702;2023-06-14T15:18:43;28.40;41.00
36690;DHT22;22676;51.120;3.702;2023-06-14T15:21:09;28.30;41.60
36690;DHT22;22676;51.120;3.702;2023-06-14T15:23:34;28.30;41.30
36690;DHT22;22676;51.120;3.702;2023-06-14T15:26:00;28.30;41.30
36690;DHT22;22676;51.120;3.702;2023-06-14T15:28:25;28.30;41.30
36690;DHT22;22676;51.120;3.702;2023-06-14T15:30:57;28.30;41.00
36690;DHT22;22676;51.120;3.702;2023-06-14T15:33:22;28.40;41.20
36690;DHT22;22676;51.120;3.702;2023-06-14T15:35:48;28.40;41.30
36690;DHT22;22676;51.120;3.702;2023-06-14T15:38:13;28.40;41.20